sensor_id;sensor_type;location;lat;lon;timestamp;P1;durP1;ratioP1;P2;durP2;ratioP2
2558;SDS011;1289;53.488;10.006;2022-09-09T00:00:13;40.73;;;26.60;;
2558;SDS011;1289;53.488;10.006;2022-09-09T00:02:41;42.10;;;28.40;;
2558;SDS011;1289;53.488;10.006;2022-09-09T00:05:13;42.67;;;28.17;;
2558;SDS011;1289;53.488;10.006;2022-09-09T00:07:46;50.23;;;27.40;;
2558;SDS011;1289;53.488;10.006;2022-09-09T00:10:16;42.57;;;25.67;;
2558;SDS011;1289;53.488;10.006;2022-09-09T00:12:48;39.47;;;25.87;;
2558;SDS011;1289;53.488;10.006;2022-09-09T00:15:22;41.97;;;26.37;;
2558;SDS011;1289;53.488;10.006;2022-09-09T00:17:52;37.20;;;25.80;;
2558;SDS011;1289;53.488;10.006;2022-09-09T00:20:23;41.77;;;26.47;;
2558;SDS011;1289;53.488;10.006;2022-09-09T00:22:53;51.70;;;28.93;;
2558;SDS011;1289;53.488;10.006;2022-09-09T00:25:27;49.23;;;27.83;;
2558;SDS011;1289;53.488;10.006;2022-09-09T00:27:56;42.90;;;24.70;;
2558;SDS011;1289;53.488;10.006;2022-09-09T00:30:24;59.37;;;28.43;;
2558;SDS011;1289;53.488;10.006;2022-09-09T00:32:53;46.77;;;26.30;;
2558;SDS011;1289;53.488;10.006;2022-09-09T00:35:24;43.63;;;24.90;;
2558;SDS011;1289;53.488;10.006;2022-09-09T00:37:54;72.70;;;28.80;;
2558;SDS011;1289;53.488;10.006;2022-09-09T00:40:24;41.10;;;24.37;;
2558;SDS011;1289;53.488;10.006;2022-09-09T00:43:00;45.97;;;24.60;;
2558;SDS011;1289;53.488;10.006;2022-09-09T00:45:49;35.90;;;23.53;;
2558;SDS011;1289;53.488;10.006;2022-09-09T00:48:27;37.30;;;21.87;;
2558;SDS011;1289;53.488;10.006;2022-09-09T00:50:57;38.60;;;21.23;;
2558;SDS011;1289;53.488;10.006;2022-09-09T00:53:31;31.93;;;20.80;;
2558;SDS011;1289;53.488;10.006;2022-09-09T00:56:06;37.70;;;21.77;;
2558;SDS011;1289;53.488;10.006;2022-09-09T00:58:38;39.07;;;22.10;;
2558;SDS011;1289;53.488;10.006;2022-09-09T01:01:08;36.47;;;22.57;;
2558;SDS011;1289;53.488;10.006;2022-09-09T01:03:37;34.63;;;22.40;;
2558;SDS011;1289;53.488;10.006;2022-09-09T01:06:12;41.90;;;23.70;;
2558;SDS011;1289;53.488;10.006;2022-09-09T01:11:48;34.30;;;21.33;;
2558;SDS011;1289;53.488;10.006;2022-09-09T01:14:29;34.70;;;22.10;;
2558;SDS011;1289;53.488;10.006;2022-09-09T01:17:08;36.83;;;20.17;;
2558;SDS011;1289;53.488;10.006;2022-09-09T01:19:44;37.57;;;21.90;;
2558;SDS011;1289;53.488;10.006;2022-09-09T01:22:20;34.60;;;21.70;;
2558;SDS011;1289;53.488;10.006;2022-09-09T01:25:01;35.17;;;21.03;;
2558;SDS011;1289;53.488;10.006;2022-09-09T01:28:13;28.60;;;20.63;;
2558;SDS011;1289;53.488;10.006;2022-09-09T01:30:43;41.33;;;22.23;;
2558;SDS011;1289;53.488;10.006;2022-09-09T01:33:14;38.83;;;22.03;;
2558;SDS011;1289;53.488;10.006;2022-09-09T01:35:43;27.97;;;19.17;;
2558;SDS011;1289;53.488;10.006;2022-09-09T01:38:13;30.53;;;20.60;;
2558;SDS011;1289;53.488;10.006;2022-09-09T01:40:41;41.93;;;20.23;;
2558;SDS011;1289;53.488;10.006;2022-09-09T01:43:08;58.77;;;21.00;;
2558;SDS011;1289;53.488;10.006;2022-09-09T01:45:37;74.83;;;24.67;;
2558;SDS011;1289;53.488;10.006;2022-09-09T01:48:05;36.83;;;19.27;;
2558;SDS011;1289;53.488;10.006;2022-09-09T01:50:41;40.13;;;19.80;;
2558;SDS011;1289;53.488;10.006;2022-09-09T01:53:08;25.50;;;17.63;;
2558;SDS011;1289;53.488;10.006;2022-09-09T01:55:37;36.00;;;18.00;;
2558;SDS011;1289;53.488;10.006;2022-09-09T01:58:09;49.90;;;22.10;;
2558;SDS011;1289;53.488;10.006;2022-09-09T02:00:51;35.43;;;19.17;;
2558;SDS011;1289;53.488;10.006;2022-09-09T02:03:23;21.37;;;16.43;;
2558;SDS011;1289;53.488;10.006;2022-09-09T02:06:02;61.07;;;25.57;;
2558;SDS011;1289;53.488;10.006;2022-09-09T02:08:33;28.80;;;16.50;;
2558;SDS011;1289;53.488;10.006;2022-09-09T02:11:06;34.17;;;17.13;;
2558;SDS011;1289;53.488;10.006;2022-09-09T02:13:43;25.07;;;16.00;;
2558;SDS011;1289;53.488;10.006;2022-09-09T02:16:14;23.43;;;16.33;;
2558;SDS011;1289;53.488;10.006;2022-09-09T02:18:47;38.77;;;18.40;;
2558;SDS011;1289;53.488;10.006;2022-09-09T02:21:18;32.03;;;17.17;;
2558;SDS011;1289;53.488;10.006;2022-09-09T02:23:46;32.87;;;16.37;;
2558;SDS011;1289;53.488;10.006;2022-09-09T02:26:14;31.17;;;17.10;;
2558;SDS011;1289;53.488;10.006;2022-09-09T02:28:47;20.20;;;16.10;;
2558;SDS011;1289;53.488;10.006;2022-09-09T02:31:18;26.83;;;17.43;;
2558;SDS011;1289;53.488;10.006;2022-09-09T02:33:48;25.17;;;14.83;;
2558;SDS011;1289;53.488;10.006;2022-09-09T02:36:18;25.40;;;16.80;;
2558;SDS011;1289;53.488;10.006;2022-09-09T02:38:47;25.77;;;16.47;;
2558;SDS011;1289;53.488;10.006;2022-09-09T02:41:19;34.70;;;16.37;;
2558;SDS011;1289;53.488;10.006;2022-09-09T02:43:49;34.33;;;16.77;;
2558;SDS011;1289;53.488;10.006;2022-09-09T02:46:22;26.90;;;15.80;;
2558;SDS011;1289;53.488;10.006;2022-09-09T02:48:57;23.30;;;16.07;;
2558;SDS011;1289;53.488;10.006;2022-09-09T02:51:32;20.00;;;14.17;;
2558;SDS011;1289;53.488;10.006;2022-09-09T02:54:04;19.00;;;15.03;;
2558;SDS011;1289;53.488;10.006;2022-09-09T02:56:39;16.73;;;14.60;;
2558;SDS011;1289;53.488;10.006;2022-09-09T02:59:08;18.13;;;14.10;;
2558;SDS011;1289;53.488;10.006;2022-09-09T03:01:37;18.73;;;12.93;;
2558;SDS011;1289;53.488;10.006;2022-09-09T03:04:05;16.53;;;13.50;;
2558;SDS011;1289;53.488;10.006;2022-09-09T03:06:32;18.13;;;13.97;;
2558;SDS011;1289;53.488;10.006;2022-09-09T03:09:08;28.53;;;12.30;;
2558;SDS011;1289;53.488;10.006;2022-09-09T03:11:36;13.40;;;12.00;;
2558;SDS011;1289;53.488;10.006;2022-09-09T03:14:04;16.37;;;13.37;;
2558;SDS011;1289;53.488;10.006;2022-09-09T03:16:31;15.07;;;13.47;;
2558;SDS011;1289;53.488;10.006;2022-09-09T03:19:01;27.67;;;14.70;;
2558;SDS011;1289;53.488;10.006;2022-09-09T03:21:28;15.67;;;12.30;;
2558;SDS011;1289;53.488;10.006;2022-09-09T03:23:55;16.47;;;12.57;;
2558;SDS011;1289;53.488;10.006;2022-09-09T03:26:22;20.90;;;14.30;;
2558;SDS011;1289;53.488;10.006;2022-09-09T03:28:49;24.53;;;15.43;;
2558;SDS011;1289;53.488;10.006;2022-09-09T03:31:19;20.40;;;14.13;;
2558;SDS011;1289;53.488;10.006;2022-09-09T03:33:46;17.30;;;14.17;;
2558;SDS011;1289;53.488;10.006;2022-09-09T03:36:16;24.63;;;15.37;;
2558;SDS011;1289;53.488;10.006;2022-09-09T03:38:43;25.93;;;16.80;;
2558;SDS011;1289;53.488;10.006;2022-09-09T03:41:11;28.40;;;17.40;;
2558;SDS011;1289;53.488;10.006;2022-09-09T03:43:38;25.83;;;16.97;;
2558;SDS011;1289;53.488;10.006;2022-09-09T03:46:05;21.47;;;15.93;;
2558;SDS011;1289;53.488;10.006;2022-09-09T03:48:31;24.70;;;15.67;;
2558;SDS011;1289;53.488;10.006;2022-09-09T03:50:59;22.87;;;16.53;;
2558;SDS011;1289;53.488;10.006;2022-09-09T03:53:29;23.13;;;16.50;;
2558;SDS011;1289;53.488;10.006;2022-09-09T03:55:56;19.60;;;14.77;;
2558;SDS011;1289;53.488;10.006;2022-09-09T03:58:25;22.93;;;15.13;;
2558;SDS011;1289;53.488;10.006;2022-09-09T04:00:57;25.10;;;16.60;;
2558;SDS011;1289;53.488;10.006;2022-09-09T04:03:26;26.60;;;16.43;;
2558;SDS011;1289;53.488;10.006;2022-09-09T04:05:53;23.20;;;17.03;;
2558;SDS011;1289;53.488;10.006;2022-09-09T04:08:21;21.70;;;15.80;;
2558;SDS011;1289;53.488;10.006;2022-09-09T04:10:49;18.23;;;14.73;;
2558;SDS011;1289;53.488;10.006;2022-09-09T04:13:17;16.37;;;14.67;;
2558;SDS011;1289;53.488;10.006;2022-09-09T04:15:50;26.40;;;16.00;;
2558;SDS011;1289;53.488;10.006;2022-09-09T04:18:17;16.40;;;14.30;;
2558;SDS011;1289;53.488;10.006;2022-09-09T04:20:45;17.40;;;14.10;;
2558;SDS011;1289;53.488;10.006;2022-09-09T04:23:12;16.53;;;14.20;;
2558;SDS011;1289;53.488;10.006;2022-09-09T04:25:42;16.30;;;13.90;;
2558;SDS011;1289;53.488;10.006;2022-09-09T04:28:11;17.90;;;14.63;;
2558;SDS011;1289;53.488;10.006;2022-09-09T04:30:38;18.40;;;15.77;;
2558;SDS011;1289;53.488;10.006;2022-09-09T04:33:06;17.93;;;15.70;;
2558;SDS011;1289;53.488;10.006;2022-09-09T04:35:33;16.77;;;14.73;;
2558;SDS011;1289;53.488;10.006;2022-09-09T04:38:00;16.63;;;14.50;;
2558;SDS011;1289;53.488;10.006;2022-09-09T04:40:29;19.00;;;16.40;;
2558;SDS011;1289;53.488;10.006;2022-09-09T04:42:57;20.53;;;16.03;;
2558;SDS011;1289;53.488;10.006;2022-09-09T04:45:25;18.00;;;15.77;;
2558;SDS011;1289;53.488;10.006;2022-09-09T04:47:53;19.40;;;15.70;;
2558;SDS011;1289;53.488;10.006;2022-09-09T04:50:20;18.07;;;14.23;;
2558;SDS011;1289;53.488;10.006;2022-09-09T04:52:47;19.80;;;16.80;;
2558;SDS011;1289;53.488;10.006;2022-09-09T04:55:14;16.70;;;14.33;;
2558;SDS011;1289;53.488;10.006;2022-09-09T04:57:43;17.70;;;15.07;;
2558;SDS011;1289;53.488;10.006;2022-09-09T05:00:11;17.53;;;14.53;;
2558;SDS011;1289;53.488;10.006;2022-09-09T05:02:41;17.20;;;14.17;;
2558;SDS011;1289;53.488;10.006;2022-09-09T05:05:08;18.20;;;14.63;;
2558;SDS011;1289;53.488;10.006;2022-09-09T05:07:36;16.30;;;13.70;;
2558;SDS011;1289;53.488;10.006;2022-09-09T05:10:03;15.83;;;14.23;;
2558;SDS011;1289;53.488;10.006;2022-09-09T05:12:31;18.37;;;14.50;;
2558;SDS011;1289;53.488;10.006;2022-09-09T05:14:57;15.63;;;12.73;;
2558;SDS011;1289;53.488;10.006;2022-09-09T05:17:25;15.70;;;12.87;;
2558;SDS011;1289;53.488;10.006;2022-09-09T05:19:54;18.53;;;13.70;;
2558;SDS011;1289;53.488;10.006;2022-09-09T05:22:20;16.23;;;12.80;;
2558;SDS011;1289;53.488;10.006;2022-09-09T05:24:48;14.73;;;13.00;;
2558;SDS011;1289;53.488;10.006;2022-09-09T05:27:16;18.03;;;14.73;;
2558;SDS011;1289;53.488;10.006;2022-09-09T05:29:44;14.80;;;13.10;;
2558;SDS011;1289;53.488;10.006;2022-09-09T05:32:12;16.10;;;14.00;;
2558;SDS011;1289;53.488;10.006;2022-09-09T05:34:41;17.03;;;14.40;;
2558;SDS011;1289;53.488;10.006;2022-09-09T05:37:09;17.57;;;13.63;;
2558;SDS011;1289;53.488;10.006;2022-09-09T05:39:36;15.93;;;13.90;;
2558;SDS011;1289;53.488;10.006;2022-09-09T05:42:03;17.00;;;14.53;;
2558;SDS011;1289;53.488;10.006;2022-09-09T05:44:32;18.37;;;13.50;;
2558;SDS011;1289;53.488;10.006;2022-09-09T05:46:59;15.63;;;13.50;;
2558;SDS011;1289;53.488;10.006;2022-09-09T05:49:26;18.57;;;14.77;;
2558;SDS011;1289;53.488;10.006;2022-09-09T05:51:53;15.17;;;13.57;;
2558;SDS011;1289;53.488;10.006;2022-09-09T05:54:21;16.90;;;13.33;;
2558;SDS011;1289;53.488;10.006;2022-09-09T05:56:50;15.27;;;13.70;;
2558;SDS011;1289;53.488;10.006;2022-09-09T05:59:18;15.67;;;13.00;;
2558;SDS011;1289;53.488;10.006;2022-09-09T06:01:45;15.90;;;13.37;;
2558;SDS011;1289;53.488;10.006;2022-09-09T06:04:21;16.33;;;12.67;;
2558;SDS011;1289;53.488;10.006;2022-09-09T06:06:49;16.07;;;13.37;;
2558;SDS011;1289;53.488;10.006;2022-09-09T06:09:18;13.70;;;11.87;;
2558;SDS011;1289;53.488;10.006;2022-09-09T06:11:46;13.73;;;11.80;;
2558;SDS011;1289;53.488;10.006;2022-09-09T06:14:14;14.57;;;13.03;;
2558;SDS011;1289;53.488;10.006;2022-09-09T06:16:45;12.90;;;11.50;;
2558;SDS011;1289;53.488;10.006;2022-09-09T06:19:22;13.23;;;11.83;;
2558;SDS011;1289;53.488;10.006;2022-09-09T06:21:54;12.83;;;11.50;;
2558;SDS011;1289;53.488;10.006;2022-09-09T06:24:20;12.33;;;10.97;;
2558;SDS011;1289;53.488;10.006;2022-09-09T06:26:48;11.40;;;10.30;;
2558;SDS011;1289;53.488;10.006;2022-09-09T06:29:20;12.00;;;10.43;;
2558;SDS011;1289;53.488;10.006;2022-09-09T06:31:46;12.40;;;11.10;;
2558;SDS011;1289;53.488;10.006;2022-09-09T06:34:21;12.27;;;10.97;;
2558;SDS011;1289;53.488;10.006;2022-09-09T06:36:58;12.40;;;11.13;;
2558;SDS011;1289;53.488;10.006;2022-09-09T06:39:29;12.97;;;11.20;;
2558;SDS011;1289;53.488;10.006;2022-09-09T06:41:57;12.30;;;11.00;;
2558;SDS011;1289;53.488;10.006;2022-09-09T06:44:43;13.90;;;11.70;;
2558;SDS011;1289;53.488;10.006;2022-09-09T06:47:16;13.03;;;10.87;;
2558;SDS011;1289;53.488;10.006;2022-09-09T06:49:42;15.50;;;12.00;;
2558;SDS011;1289;53.488;10.006;2022-09-09T06:52:09;13.10;;;11.47;;
2558;SDS011;1289;53.488;10.006;2022-09-09T06:54:37;14.13;;;11.40;;
2558;SDS011;1289;53.488;10.006;2022-09-09T06:57:06;13.23;;;11.93;;
2558;SDS011;1289;53.488;10.006;2022-09-09T06:59:33;12.57;;;11.27;;
2558;SDS011;1289;53.488;10.006;2022-09-09T07:02:01;12.23;;;10.93;;
2558;SDS011;1289;53.488;10.006;2022-09-09T07:04:28;11.53;;;10.33;;
2558;SDS011;1289;53.488;10.006;2022-09-09T07:06:55;11.10;;;10.00;;
2558;SDS011;1289;53.488;10.006;2022-09-09T07:09:23;10.73;;;9.63;;
2558;SDS011;1289;53.488;10.006;2022-09-09T07:11:52;12.53;;;10.53;;
2558;SDS011;1289;53.488;10.006;2022-09-09T07:14:21;11.00;;;8.97;;
2558;SDS011;1289;53.488;10.006;2022-09-09T07:16:54;9.70;;;8.50;;
2558;SDS011;1289;53.488;10.006;2022-09-09T07:19:22;9.63;;;8.63;;
2558;SDS011;1289;53.488;10.006;2022-09-09T07:21:51;9.20;;;8.27;;
2558;SDS011;1289;53.488;10.006;2022-09-09T07:24:21;12.93;;;8.43;;
2558;SDS011;1289;53.488;10.006;2022-09-09T07:26:48;9.47;;;8.20;;
2558;SDS011;1289;53.488;10.006;2022-09-09T07:29:15;9.47;;;8.57;;
2558;SDS011;1289;53.488;10.006;2022-09-09T07:31:44;11.27;;;8.83;;
2558;SDS011;1289;53.488;10.006;2022-09-09T07:34:15;8.73;;;7.70;;
2558;SDS011;1289;53.488;10.006;2022-09-09T07:36:42;8.13;;;7.43;;
2558;SDS011;1289;53.488;10.006;2022-09-09T07:39:11;9.53;;;7.87;;
2558;SDS011;1289;53.488;10.006;2022-09-09T07:41:43;8.10;;;7.30;;
2558;SDS011;1289;53.488;10.006;2022-09-09T07:44:12;9.10;;;8.30;;
2558;SDS011;1289;53.488;10.006;2022-09-09T07:46:43;9.83;;;7.20;;
2558;SDS011;1289;53.488;10.006;2022-09-09T07:49:15;8.10;;;7.40;;
2558;SDS011;1289;53.488;10.006;2022-09-09T07:51:44;9.43;;;7.67;;
2558;SDS011;1289;53.488;10.006;2022-09-09T07:54:14;9.07;;;8.17;;
2558;SDS011;1289;53.488;10.006;2022-09-09T07:56:43;7.40;;;6.33;;
2558;SDS011;1289;53.488;10.006;2022-09-09T07:59:11;8.33;;;7.63;;
2558;SDS011;1289;53.488;10.006;2022-09-09T08:01:40;7.90;;;6.60;;
2558;SDS011;1289;53.488;10.006;2022-09-09T08:04:12;8.10;;;7.10;;
2558;SDS011;1289;53.488;10.006;2022-09-09T08:06:42;10.00;;;7.83;;
2558;SDS011;1289;53.488;10.006;2022-09-09T08:09:12;7.67;;;6.37;;
2558;SDS011;1289;53.488;10.006;2022-09-09T08:11:40;7.83;;;6.53;;
2558;SDS011;1289;53.488;10.006;2022-09-09T08:14:07;7.10;;;6.47;;
2558;SDS011;1289;53.488;10.006;2022-09-09T08:16:36;9.50;;;6.13;;
2558;SDS011;1289;53.488;10.006;2022-09-09T08:19:04;7.67;;;6.67;;
2558;SDS011;1289;53.488;10.006;2022-09-09T08:21:35;7.53;;;6.03;;
2558;SDS011;1289;53.488;10.006;2022-09-09T08:24:04;5.60;;;5.10;;
2558;SDS011;1289;53.488;10.006;2022-09-09T08:26:34;5.27;;;4.87;;
2558;SDS011;1289;53.488;10.006;2022-09-09T08:29:02;6.73;;;5.67;;
2558;SDS011;1289;53.488;10.006;2022-09-09T08:31:31;6.03;;;5.50;;
2558;SDS011;1289;53.488;10.006;2022-09-09T08:33:59;5.63;;;5.23;;
2558;SDS011;1289;53.488;10.006;2022-09-09T08:36:29;5.80;;;5.30;;
2558;SDS011;1289;53.488;10.006;2022-09-09T08:39:00;6.10;;;5.43;;
2558;SDS011;1289;53.488;10.006;2022-09-09T08:41:44;6.60;;;6.10;;
2558;SDS011;1289;53.488;10.006;2022-09-09T08:44:20;7.10;;;5.50;;
2558;SDS011;1289;53.488;10.006;2022-09-09T08:46:54;7.87;;;6.40;;
2558;SDS011;1289;53.488;10.006;2022-09-09T08:49:29;6.00;;;5.37;;
2558;SDS011;1289;53.488;10.006;2022-09-09T08:52:17;6.03;;;5.43;;
2558;SDS011;1289;53.488;10.006;2022-09-09T08:54:47;7.03;;;5.40;;
2558;SDS011;1289;53.488;10.006;2022-09-09T08:57:16;5.60;;;5.10;;
2558;SDS011;1289;53.488;10.006;2022-09-09T08:59:45;7.20;;;4.90;;
2558;SDS011;1289;53.488;10.006;2022-09-09T09:02:14;6.30;;;4.97;;
2558;SDS011;1289;53.488;10.006;2022-09-09T09:04:50;6.07;;;5.33;;
2558;SDS011;1289;53.488;10.006;2022-09-09T09:07:26;5.23;;;4.83;;
2558;SDS011;1289;53.488;10.006;2022-09-09T09:10:04;5.53;;;5.03;;
2558;SDS011;1289;53.488;10.006;2022-09-09T09:12:39;5.53;;;4.50;;
2558;SDS011;1289;53.488;10.006;2022-09-09T09:15:11;5.30;;;4.30;;
2558;SDS011;1289;53.488;10.006;2022-09-09T09:17:42;5.93;;;4.57;;
2558;SDS011;1289;53.488;10.006;2022-09-09T09:20:11;5.20;;;4.70;;
2558;SDS011;1289;53.488;10.006;2022-09-09T09:22:43;5.07;;;4.20;;
2558;SDS011;1289;53.488;10.006;2022-09-09T09:25:18;4.93;;;4.43;;
2558;SDS011;1289;53.488;10.006;2022-09-09T09:27:49;5.83;;;4.20;;
2558;SDS011;1289;53.488;10.006;2022-09-09T09:30:34;4.47;;;4.03;;
2558;SDS011;1289;53.488;10.006;2022-09-09T09:33:05;4.73;;;4.27;;
2558;SDS011;1289;53.488;10.006;2022-09-09T09:35:37;7.20;;;4.37;;
2558;SDS011;1289;53.488;10.006;2022-09-09T09:38:05;4.53;;;4.13;;
2558;SDS011;1289;53.488;10.006;2022-09-09T09:40:49;6.07;;;4.53;;
2558;SDS011;1289;53.488;10.006;2022-09-09T09:43:19;5.33;;;4.90;;
2558;SDS011;1289;53.488;10.006;2022-09-09T09:45:47;4.47;;;4.07;;
2558;SDS011;1289;53.488;10.006;2022-09-09T09:48:15;5.27;;;4.27;;
2558;SDS011;1289;53.488;10.006;2022-09-09T09:50:46;4.47;;;4.10;;
2558;SDS011;1289;53.488;10.006;2022-09-09T09:53:22;3.80;;;3.50;;
2558;SDS011;1289;53.488;10.006;2022-09-09T09:56:02;3.83;;;3.47;;
2558;SDS011;1289;53.488;10.006;2022-09-09T09:58:32;3.80;;;3.50;;
2558;SDS011;1289;53.488;10.006;2022-09-09T10:01:00;4.17;;;3.87;;
2558;SDS011;1289;53.488;10.006;2022-09-09T10:03:30;3.90;;;3.60;;
2558;SDS011;1289;53.488;10.006;2022-09-09T10:06:05;3.93;;;3.63;;
2558;SDS011;1289;53.488;10.006;2022-09-09T10:08:34;3.87;;;3.57;;
2558;SDS011;1289;53.488;10.006;2022-09-09T10:14:10;5.33;;;3.33;;
2558;SDS011;1289;53.488;10.006;2022-09-09T10:16:46;3.23;;;3.03;;
2558;SDS011;1289;53.488;10.006;2022-09-09T10:19:26;4.70;;;3.40;;
2558;SDS011;1289;53.488;10.006;2022-09-09T10:22:02;2.83;;;2.63;;
2558;SDS011;1289;53.488;10.006;2022-09-09T10:24:39;3.03;;;2.70;;
2558;SDS011;1289;53.488;10.006;2022-09-09T10:27:32;2.10;;;1.90;;
2558;SDS011;1289;53.488;10.006;2022-09-09T10:30:05;2.60;;;2.40;;
2558;SDS011;1289;53.488;10.006;2022-09-09T10:32:37;2.53;;;2.33;;
2558;SDS011;1289;53.488;10.006;2022-09-09T10:35:10;5.00;;;2.17;;
2558;SDS011;1289;53.488;10.006;2022-09-09T10:40:31;3.50;;;2.40;;
2558;SDS011;1289;53.488;10.006;2022-09-09T10:43:03;2.23;;;2.03;;
2558;SDS011;1289;53.488;10.006;2022-09-09T10:45:39;2.43;;;2.10;;
2558;SDS011;1289;53.488;10.006;2022-09-09T10:48:16;2.77;;;2.57;;
2558;SDS011;1289;53.488;10.006;2022-09-09T10:50:54;3.20;;;2.90;;
2558;SDS011;1289;53.488;10.006;2022-09-09T10:53:30;2.53;;;2.00;;
2558;SDS011;1289;53.488;10.006;2022-09-09T10:56:03;2.30;;;2.10;;
2558;SDS011;1289;53.488;10.006;2022-09-09T10:58:35;3.40;;;2.50;;
2558;SDS011;1289;53.488;10.006;2022-09-09T11:01:06;3.50;;;3.30;;
2558;SDS011;1289;53.488;10.006;2022-09-09T11:03:39;2.57;;;2.30;;
2558;SDS011;1289;53.488;10.006;2022-09-09T11:06:06;2.87;;;2.47;;
2558;SDS011;1289;53.488;10.006;2022-09-09T11:08:38;2.83;;;2.57;;
2558;SDS011;1289;53.488;10.006;2022-09-09T11:11:06;3.37;;;3.07;;
2558;SDS011;1289;53.488;10.006;2022-09-09T11:13:40;2.63;;;2.43;;
2558;SDS011;1289;53.488;10.006;2022-09-09T11:16:15;3.00;;;2.80;;
2558;SDS011;1289;53.488;10.006;2022-09-09T11:18:45;3.70;;;3.00;;
2558;SDS011;1289;53.488;10.006;2022-09-09T11:21:14;2.90;;;2.70;;
2558;SDS011;1289;53.488;10.006;2022-09-09T11:23:44;3.40;;;2.90;;
2558;SDS011;1289;53.488;10.006;2022-09-09T11:26:15;2.93;;;2.73;;
2558;SDS011;1289;53.488;10.006;2022-09-09T11:28:51;4.37;;;2.50;;
2558;SDS011;1289;53.488;10.006;2022-09-09T11:31:31;3.37;;;2.77;;
2558;SDS011;1289;53.488;10.006;2022-09-09T11:34:09;2.77;;;2.53;;
2558;SDS011;1289;53.488;10.006;2022-09-09T11:36:50;3.33;;;3.03;;
2558;SDS011;1289;53.488;10.006;2022-09-09T11:42:23;3.70;;;3.40;;
2558;SDS011;1289;53.488;10.006;2022-09-09T11:44:51;3.83;;;2.90;;
2558;SDS011;1289;53.488;10.006;2022-09-09T11:47:21;3.07;;;2.77;;
2558;SDS011;1289;53.488;10.006;2022-09-09T11:49:54;3.23;;;3.03;;
2558;SDS011;1289;53.488;10.006;2022-09-09T11:52:22;4.87;;;2.83;;
2558;SDS011;1289;53.488;10.006;2022-09-09T11:54:51;3.20;;;3.00;;
2558;SDS011;1289;53.488;10.006;2022-09-09T11:57:23;3.67;;;2.80;;
2558;SDS011;1289;53.488;10.006;2022-09-09T11:59:55;3.30;;;2.60;;
2558;SDS011;1289;53.488;10.006;2022-09-09T12:02:22;3.10;;;2.80;;
2558;SDS011;1289;53.488;10.006;2022-09-09T12:04:54;4.00;;;2.93;;
2558;SDS011;1289;53.488;10.006;2022-09-09T12:07:29;3.27;;;2.97;;
2558;SDS011;1289;53.488;10.006;2022-09-09T12:09:58;3.00;;;2.70;;
2558;SDS011;1289;53.488;10.006;2022-09-09T12:12:30;4.67;;;3.30;;
2558;SDS011;1289;53.488;10.006;2022-09-09T12:15:00;4.20;;;3.10;;
2558;SDS011;1289;53.488;10.006;2022-09-09T12:17:46;3.60;;;3.30;;
2558;SDS011;1289;53.488;10.006;2022-09-09T12:20:16;3.60;;;3.30;;
2558;SDS011;1289;53.488;10.006;2022-09-09T12:22:47;3.37;;;3.07;;
2558;SDS011;1289;53.488;10.006;2022-09-09T12:25:23;3.77;;;3.30;;
2558;SDS011;1289;53.488;10.006;2022-09-09T12:27:59;3.60;;;3.30;;
2558;SDS011;1289;53.488;10.006;2022-09-09T12:30:34;3.63;;;3.33;;
2558;SDS011;1289;53.488;10.006;2022-09-09T12:33:08;3.63;;;3.33;;
2558;SDS011;1289;53.488;10.006;2022-09-09T12:35:36;3.70;;;3.40;;
2558;SDS011;1289;53.488;10.006;2022-09-09T12:38:04;4.27;;;3.50;;
2558;SDS011;1289;53.488;10.006;2022-09-09T12:40:32;4.80;;;3.50;;
2558;SDS011;1289;53.488;10.006;2022-09-09T12:43:00;5.10;;;4.20;;
2558;SDS011;1289;53.488;10.006;2022-09-09T12:45:28;6.87;;;4.47;;
2558;SDS011;1289;53.488;10.006;2022-09-09T12:47:58;5.87;;;5.13;;
2558;SDS011;1289;53.488;10.006;2022-09-09T12:50:27;6.60;;;6.00;;
2558;SDS011;1289;53.488;10.006;2022-09-09T12:52:56;7.70;;;5.83;;
2558;SDS011;1289;53.488;10.006;2022-09-09T12:55:27;6.73;;;6.00;;
2558;SDS011;1289;53.488;10.006;2022-09-09T12:57:55;12.80;;;6.60;;
2558;SDS011;1289;53.488;10.006;2022-09-09T13:00:23;8.83;;;6.50;;
2558;SDS011;1289;53.488;10.006;2022-09-09T13:02:51;5.80;;;5.30;;
2558;SDS011;1289;53.488;10.006;2022-09-09T13:05:21;6.20;;;5.60;;
2558;SDS011;1289;53.488;10.006;2022-09-09T13:07:48;5.80;;;5.37;;
2558;SDS011;1289;53.488;10.006;2022-09-09T13:10:19;6.87;;;5.80;;
2558;SDS011;1289;53.488;10.006;2022-09-09T13:12:49;7.13;;;6.43;;
2558;SDS011;1289;53.488;10.006;2022-09-09T13:15:18;6.53;;;6.03;;
2558;SDS011;1289;53.488;10.006;2022-09-09T13:17:51;7.33;;;6.20;;
2558;SDS011;1289;53.488;10.006;2022-09-09T13:20:21;8.60;;;7.80;;
2558;SDS011;1289;53.488;10.006;2022-09-09T13:22:49;8.90;;;7.57;;
2558;SDS011;1289;53.488;10.006;2022-09-09T13:25:18;7.77;;;7.17;;
2558;SDS011;1289;53.488;10.006;2022-09-09T13:27:57;8.30;;;6.93;;
2558;SDS011;1289;53.488;10.006;2022-09-09T13:30:25;7.03;;;6.00;;
2558;SDS011;1289;53.488;10.006;2022-09-09T13:33:04;6.17;;;5.67;;
2558;SDS011;1289;53.488;10.006;2022-09-09T13:35:34;6.50;;;6.00;;
2558;SDS011;1289;53.488;10.006;2022-09-09T13:38:06;7.67;;;6.10;;
2558;SDS011;1289;53.488;10.006;2022-09-09T13:40:34;6.93;;;6.27;;
2558;SDS011;1289;53.488;10.006;2022-09-09T13:43:02;8.17;;;6.07;;
2558;SDS011;1289;53.488;10.006;2022-09-09T13:45:28;6.90;;;6.20;;
2558;SDS011;1289;53.488;10.006;2022-09-09T13:47:55;6.37;;;5.90;;
2558;SDS011;1289;53.488;10.006;2022-09-09T13:50:23;7.27;;;6.37;;
2558;SDS011;1289;53.488;10.006;2022-09-09T13:52:53;6.73;;;6.13;;
2558;SDS011;1289;53.488;10.006;2022-09-09T13:55:21;6.90;;;6.30;;
2558;SDS011;1289;53.488;10.006;2022-09-09T13:57:52;7.30;;;6.60;;
2558;SDS011;1289;53.488;10.006;2022-09-09T14:00:19;7.10;;;6.40;;
2558;SDS011;1289;53.488;10.006;2022-09-09T14:02:46;7.63;;;6.93;;
2558;SDS011;1289;53.488;10.006;2022-09-09T14:05:13;7.27;;;6.67;;
2558;SDS011;1289;53.488;10.006;2022-09-09T14:07:41;7.00;;;6.17;;
2558;SDS011;1289;53.488;10.006;2022-09-09T14:10:10;7.60;;;6.80;;
2558;SDS011;1289;53.488;10.006;2022-09-09T14:12:36;7.53;;;6.83;;
2558;SDS011;1289;53.488;10.006;2022-09-09T14:15:03;9.53;;;6.50;;
2558;SDS011;1289;53.488;10.006;2022-09-09T14:17:31;9.40;;;6.10;;
2558;SDS011;1289;53.488;10.006;2022-09-09T14:19:58;6.40;;;5.50;;
2558;SDS011;1289;53.488;10.006;2022-09-09T14:22:25;7.27;;;5.50;;
2558;SDS011;1289;53.488;10.006;2022-09-09T14:24:53;5.03;;;4.63;;
2558;SDS011;1289;53.488;10.006;2022-09-09T14:27:21;5.10;;;4.60;;
2558;SDS011;1289;53.488;10.006;2022-09-09T14:29:47;4.77;;;4.20;;
2558;SDS011;1289;53.488;10.006;2022-09-09T14:32:14;3.70;;;3.50;;
2558;SDS011;1289;53.488;10.006;2022-09-09T14:34:41;5.73;;;3.70;;
2558;SDS011;1289;53.488;10.006;2022-09-09T14:37:07;3.90;;;3.60;;
2558;SDS011;1289;53.488;10.006;2022-09-09T14:39:34;4.40;;;4.00;;
2558;SDS011;1289;53.488;10.006;2022-09-09T14:42:00;4.13;;;3.73;;
2558;SDS011;1289;53.488;10.006;2022-09-09T14:44:29;3.90;;;3.60;;
2558;SDS011;1289;53.488;10.006;2022-09-09T14:46:55;3.63;;;3.33;;
2558;SDS011;1289;53.488;10.006;2022-09-09T14:49:22;6.10;;;4.70;;
2558;SDS011;1289;53.488;10.006;2022-09-09T14:51:48;4.93;;;4.43;;
2558;SDS011;1289;53.488;10.006;2022-09-09T14:54:15;4.13;;;3.73;;
2558;SDS011;1289;53.488;10.006;2022-09-09T14:56:41;4.30;;;4.00;;
2558;SDS011;1289;53.488;10.006;2022-09-09T14:59:08;4.70;;;4.30;;
2558;SDS011;1289;53.488;10.006;2022-09-09T15:01:36;5.13;;;4.63;;
2558;SDS011;1289;53.488;10.006;2022-09-09T15:04:03;4.73;;;4.33;;
2558;SDS011;1289;53.488;10.006;2022-09-09T15:06:31;4.20;;;3.90;;
2558;SDS011;1289;53.488;10.006;2022-09-09T15:09:00;4.27;;;3.97;;
2558;SDS011;1289;53.488;10.006;2022-09-09T15:11:27;4.60;;;4.20;;
2558;SDS011;1289;53.488;10.006;2022-09-09T15:13:55;4.53;;;4.13;;
2558;SDS011;1289;53.488;10.006;2022-09-09T15:16:24;4.50;;;4.00;;
2558;SDS011;1289;53.488;10.006;2022-09-09T15:18:53;4.53;;;4.10;;